TimeHST,TemperatureF,Dew PointF,Humidity,Sea Level PressureIn,VisibilityMPH,Wind Direction,Wind SpeedMPH,Gust SpeedMPH,PrecipitationIn,Events,Conditions,WindDirDegrees,DateUTC
12:53 AM,71.1,52.0,51,30.04,10.0,NE,10.4,-,N/A,,Mostly Cloudy,40,2013-02-14 10:53:00
1:53 AM,70.0,54.0,57,30.02,10.0,Calm,Calm,-,N/A,,Overcast,0,2013-02-14 11:53:00
2:53 AM,69.1,54.0,58,30.01,10.0,North,4.6,-,N/A,,Mostly Cloudy,360,2013-02-14 12:53:00
3:53 AM,68.0,55.9,65,30.00,10.0,NE,3.5,-,N/A,,Mostly Cloudy,40,2013-02-14 13:53:00
4:53 AM,66.0,55.0,68,30.00,10.0,NNE,5.8,-,N/A,,Clear,30,2013-02-14 14:53:00
5:53 AM,66.0,55.9,70,30.00,10.0,Calm,Calm,-,N/A,,Clear,0,2013-02-14 15:53:00
6:53 AM,66.0,55.0,68,30.03,10.0,ESE,4.6,-,N/A,,Clear,110,2013-02-14 16:53:00
7:53 AM,68.0,55.0,63,30.04,10.0,ENE,4.6,-,N/A,,Clear,60,2013-02-14 17:53:00
8:53 AM,75.0,57.0,53,30.05,10.0,NNE,4.6,-,N/A,,Clear,20,2013-02-14 18:53:00
9:53 AM,75.9,57.0,52,30.06,10.0,Variable,6.9,-,N/A,,Clear,0,2013-02-14 19:53:00
10:14 AM,77.0,57.2,50,30.06,10.0,WNW,5.8,-,N/A,,Clear,300,2013-02-14 20:14:00
10:53 AM,78.1,57.0,48,30.06,10.0,West,6.9,-,N/A,,Clear,280,2013-02-14 20:53:00
11:53 AM,79.0,57.9,48,30.04,10.0,SW,6.9,-,N/A,,Clear,230,2013-02-14 21:53:00
12:53 PM,78.1,57.0,48,30.01,10.0,WSW,6.9,-,N/A,,Partly Cloudy,250,2013-02-14 22:53:00
1:53 PM,78.1,59.0,52,29.98,10.0,SW,9.2,-,N/A,,Mostly Cloudy,230,2013-02-14 23:53:00
2:53 PM,78.1,57.9,50,29.96,10.0,SSW,9.2,-,N/A,,Overcast,210,2013-02-15 00:53:00
3:53 PM,77.0,59.0,54,29.96,10.0,SSW,6.9,-,N/A,,Overcast,210,2013-02-15 01:53:00
4:53 PM,77.0,60.1,56,29.96,10.0,South,8.1,-,N/A,,Mostly Cloudy,180,2013-02-15 02:53:00
5:53 PM,75.0,59.0,57,29.97,10.0,South,4.6,-,N/A,,Mostly Cloudy,190,2013-02-15 03:53:00
6:53 PM,75.0,55.0,50,29.98,10.0,NE,6.9,-,N/A,,Mostly Cloudy,50,2013-02-15 04:53:00
7:53 PM,73.0,55.9,55,30.00,10.0,ENE,8.1,-,N/A,,Clear,60,2013-02-15 05:53:00
8:53 PM,72.0,54.0,53,30.01,10.0,NE,11.5,-,N/A,,Clear,50,2013-02-15 06:53:00
9:53 PM,71.1,53.1,53,30.02,10.0,NNE,6.9,-,N/A,,Mostly Cloudy,30,2013-02-15 07:53:00
10:53 PM,70.0,53.1,55,30.01,10.0,NNE,3.5,-,N/A,,Partly Cloudy,30,2013-02-15 08:53:00
11:53 PM,70.0,57.9,65,30.00,10.0,SE,5.8,-,N/A,,Clear,140,2013-02-15 09:53:00